Terminal Aerodrome Forecast
Issued by NWS Boston, MA

Home | Current Version | Previous Version | Text Only | Print | Product List | Glossary On
Versions: 1 2 3 4 5 6 7 8 9 10 11 12 13 14 15 16 17 18 19 20 21 22 23 24 25
000
FTUS41 KBOX 122339
TAFBDL
TAF
KBDL 122339Z 1300/1406 25004KT 6SM BR VCSH BKN035
     FM130200 30010G18KT P6SM BKN050
     FM130900 28010G22KT P6SM SCT100
     FM131600 29013G30KT P6SM SCT050
     FM131800 28014G31KT P6SM BKN050
     FM132300 27011G27KT P6SM FEW150
     FM140400 26008KT P6SM SCT130=

USA.gov is the U.S. government's official web portal to all federal, state and local government web resources and services.